sensor_id;sensor_type;location;lat;lon;timestamp;P1;durP1;ratioP1;P2;durP2;ratioP2
48042;SDS011;33988;47.992;8.820;2024-01-30T00:00:08;11.45;;;6.63;;
48042;SDS011;33988;47.992;8.820;2024-01-30T00:02:35;10.52;;;7.20;;
48042;SDS011;33988;47.992;8.820;2024-01-30T00:05:02;9.98;;;6.75;;
48042;SDS011;33988;47.992;8.820;2024-01-30T00:07:30;11.73;;;6.28;;
48042;SDS011;33988;47.992;8.820;2024-01-30T00:09:57;8.85;;;5.88;;
48042;SDS011;33988;47.992;8.820;2024-01-30T00:12:24;11.13;;;7.03;;
48042;SDS011;33988;47.992;8.820;2024-01-30T00:14:53;12.65;;;7.18;;
48042;SDS011;33988;47.992;8.820;2024-01-30T00:17:20;10.13;;;7.22;;
48042;SDS011;33988;47.992;8.820;2024-01-30T00:19:47;11.90;;;7.30;;
48042;SDS011;33988;47.992;8.820;2024-01-30T00:22:17;11.57;;;7.47;;
48042;SDS011;33988;47.992;8.820;2024-01-30T00:24:44;13.50;;;7.43;;
48042;SDS011;33988;47.992;8.820;2024-01-30T00:27:11;10.90;;;7.40;;
48042;SDS011;33988;47.992;8.820;2024-01-30T00:29:41;10.77;;;6.75;;
48042;SDS011;33988;47.992;8.820;2024-01-30T00:32:08;10.88;;;6.50;;
48042;SDS011;33988;47.992;8.820;2024-01-30T00:34:34;10.10;;;6.20;;
48042;SDS011;33988;47.992;8.820;2024-01-30T00:37:02;11.77;;;6.72;;
48042;SDS011;33988;47.992;8.820;2024-01-30T00:39:34;14.93;;;7.28;;
48042;SDS011;33988;47.992;8.820;2024-01-30T00:42:01;12.82;;;7.32;;
48042;SDS011;33988;47.992;8.820;2024-01-30T00:44:31;10.15;;;6.78;;
48042;SDS011;33988;47.992;8.820;2024-01-30T00:47:01;13.95;;;7.72;;
48042;SDS011;33988;47.992;8.820;2024-01-30T00:49:28;10.10;;;6.55;;
48042;SDS011;33988;47.992;8.820;2024-01-30T00:51:55;12.63;;;7.10;;
48042;SDS011;33988;47.992;8.820;2024-01-30T00:54:22;12.38;;;7.70;;
48042;SDS011;33988;47.992;8.820;2024-01-30T00:56:51;12.48;;;7.57;;
48042;SDS011;33988;47.992;8.820;2024-01-30T00:59:18;9.75;;;6.50;;
48042;SDS011;33988;47.992;8.820;2024-01-30T01:01:45;9.23;;;5.90;;
48042;SDS011;33988;47.992;8.820;2024-01-30T01:04:14;11.85;;;6.28;;
48042;SDS011;33988;47.992;8.820;2024-01-30T01:06:42;11.60;;;7.13;;
48042;SDS011;33988;47.992;8.820;2024-01-30T01:09:11;13.40;;;6.82;;
48042;SDS011;33988;47.992;8.820;2024-01-30T01:11:38;10.63;;;6.90;;
48042;SDS011;33988;47.992;8.820;2024-01-30T01:14:06;11.23;;;6.78;;
48042;SDS011;33988;47.992;8.820;2024-01-30T01:16:33;12.43;;;7.30;;
48042;SDS011;33988;47.992;8.820;2024-01-30T01:19:03;11.17;;;6.77;;
48042;SDS011;33988;47.992;8.820;2024-01-30T01:21:31;10.65;;;6.70;;
48042;SDS011;33988;47.992;8.820;2024-01-30T01:24:00;9.43;;;6.20;;
48042;SDS011;33988;47.992;8.820;2024-01-30T01:26:26;9.43;;;6.78;;
48042;SDS011;33988;47.992;8.820;2024-01-30T01:28:54;14.95;;;6.80;;
48042;SDS011;33988;47.992;8.820;2024-01-30T01:31:23;10.23;;;6.43;;
48042;SDS011;33988;47.992;8.820;2024-01-30T01:33:51;10.95;;;6.57;;
48042;SDS011;33988;47.992;8.820;2024-01-30T01:36:18;9.95;;;6.18;;
48042;SDS011;33988;47.992;8.820;2024-01-30T01:38:45;8.25;;;6.00;;
48042;SDS011;33988;47.992;8.820;2024-01-30T01:41:12;10.02;;;6.18;;
48042;SDS011;33988;47.992;8.820;2024-01-30T01:43:39;10.63;;;6.75;;
48042;SDS011;33988;47.992;8.820;2024-01-30T01:46:06;11.27;;;6.65;;
48042;SDS011;33988;47.992;8.820;2024-01-30T01:48:34;10.98;;;7.07;;
48042;SDS011;33988;47.992;8.820;2024-01-30T01:51:02;9.82;;;6.15;;
48042;SDS011;33988;47.992;8.820;2024-01-30T01:53:29;9.70;;;6.47;;
48042;SDS011;33988;47.992;8.820;2024-01-30T01:55:56;9.68;;;5.85;;
48042;SDS011;33988;47.992;8.820;2024-01-30T01:58:26;12.52;;;6.78;;
48042;SDS011;33988;47.992;8.820;2024-01-30T02:00:57;8.00;;;5.50;;
48042;SDS011;33988;47.992;8.820;2024-01-30T02:03:28;8.57;;;6.07;;
48042;SDS011;33988;47.992;8.820;2024-01-30T02:05:55;8.95;;;6.07;;
48042;SDS011;33988;47.992;8.820;2024-01-30T02:08:23;9.82;;;5.95;;
48042;SDS011;33988;47.992;8.820;2024-01-30T02:10:52;8.77;;;6.15;;
48042;SDS011;33988;47.992;8.820;2024-01-30T02:15:51;8.77;;;5.15;;
48042;SDS011;33988;47.992;8.820;2024-01-30T02:18:19;8.90;;;5.43;;
48042;SDS011;33988;47.992;8.820;2024-01-30T02:20:50;8.85;;;5.60;;
48042;SDS011;33988;47.992;8.820;2024-01-30T02:23:20;9.43;;;5.93;;
48042;SDS011;33988;47.992;8.820;2024-01-30T02:25:49;9.20;;;5.72;;
48042;SDS011;33988;47.992;8.820;2024-01-30T02:28:19;12.00;;;6.32;;
48042;SDS011;33988;47.992;8.820;2024-01-30T02:30:47;12.23;;;6.50;;
48042;SDS011;33988;47.992;8.820;2024-01-30T02:33:16;9.90;;;6.43;;
48042;SDS011;33988;47.992;8.820;2024-01-30T02:35:43;8.10;;;5.63;;
48042;SDS011;33988;47.992;8.820;2024-01-30T02:38:12;9.93;;;5.68;;
48042;SDS011;33988;47.992;8.820;2024-01-30T02:40:42;9.48;;;5.95;;
48042;SDS011;33988;47.992;8.820;2024-01-30T02:43:10;8.73;;;5.70;;
48042;SDS011;33988;47.992;8.820;2024-01-30T02:45:37;11.18;;;5.75;;
48042;SDS011;33988;47.992;8.820;2024-01-30T02:48:04;9.13;;;5.88;;
48042;SDS011;33988;47.992;8.820;2024-01-30T02:50:32;9.30;;;5.35;;
48042;SDS011;33988;47.992;8.820;2024-01-30T02:52:59;12.32;;;5.55;;
48042;SDS011;33988;47.992;8.820;2024-01-30T02:55:28;7.82;;;5.10;;
48042;SDS011;33988;47.992;8.820;2024-01-30T02:57:55;9.38;;;5.57;;
48042;SDS011;33988;47.992;8.820;2024-01-30T03:00:22;7.13;;;5.05;;
48042;SDS011;33988;47.992;8.820;2024-01-30T03:02:50;7.68;;;5.22;;
48042;SDS011;33988;47.992;8.820;2024-01-30T03:05:17;8.38;;;5.72;;
48042;SDS011;33988;47.992;8.820;2024-01-30T03:07:46;8.48;;;5.70;;
48042;SDS011;33988;47.992;8.820;2024-01-30T03:10:13;10.40;;;6.55;;
48042;SDS011;33988;47.992;8.820;2024-01-30T03:12:45;12.55;;;6.07;;
48042;SDS011;33988;47.992;8.820;2024-01-30T03:15:16;7.15;;;5.18;;
48042;SDS011;33988;47.992;8.820;2024-01-30T03:17:43;9.93;;;5.55;;
48042;SDS011;33988;47.992;8.820;2024-01-30T03:20:10;9.40;;;5.88;;
48042;SDS011;33988;47.992;8.820;2024-01-30T03:22:40;9.65;;;6.55;;
48042;SDS011;33988;47.992;8.820;2024-01-30T03:25:07;12.13;;;7.60;;
48042;SDS011;33988;47.992;8.820;2024-01-30T03:27:34;13.35;;;8.15;;
48042;SDS011;33988;47.992;8.820;2024-01-30T03:30:01;16.85;;;9.30;;
48042;SDS011;33988;47.992;8.820;2024-01-30T03:32:30;16.35;;;8.73;;
48042;SDS011;33988;47.992;8.820;2024-01-30T03:34:57;14.15;;;8.63;;
48042;SDS011;33988;47.992;8.820;2024-01-30T03:37:27;14.13;;;7.70;;
48042;SDS011;33988;47.992;8.820;2024-01-30T03:42:25;9.63;;;5.95;;
48042;SDS011;33988;47.992;8.820;2024-01-30T03:44:55;11.27;;;6.18;;
48042;SDS011;33988;47.992;8.820;2024-01-30T03:47:22;10.43;;;6.18;;
48042;SDS011;33988;47.992;8.820;2024-01-30T03:49:54;10.57;;;6.72;;
48042;SDS011;33988;47.992;8.820;2024-01-30T03:52:24;9.05;;;6.03;;
48042;SDS011;33988;47.992;8.820;2024-01-30T03:54:51;11.05;;;5.75;;
48042;SDS011;33988;47.992;8.820;2024-01-30T03:57:18;10.10;;;5.75;;
48042;SDS011;33988;47.992;8.820;2024-01-30T03:59:48;7.40;;;5.18;;
48042;SDS011;33988;47.992;8.820;2024-01-30T04:02:15;7.72;;;5.53;;
48042;SDS011;33988;47.992;8.820;2024-01-30T04:04:42;8.57;;;5.63;;
48042;SDS011;33988;47.992;8.820;2024-01-30T04:07:11;9.85;;;5.72;;
48042;SDS011;33988;47.992;8.820;2024-01-30T04:09:38;7.38;;;5.15;;
48042;SDS011;33988;47.992;8.820;2024-01-30T04:12:07;8.15;;;5.18;;
48042;SDS011;33988;47.992;8.820;2024-01-30T04:14:34;6.85;;;5.15;;
48042;SDS011;33988;47.992;8.820;2024-01-30T04:17:01;8.35;;;5.07;;
48042;SDS011;33988;47.992;8.820;2024-01-30T04:19:36;7.43;;;5.13;;
48042;SDS011;33988;47.992;8.820;2024-01-30T04:24:31;5.40;;;3.72;;
48042;SDS011;33988;47.992;8.820;2024-01-30T04:27:01;7.88;;;4.80;;
48042;SDS011;33988;47.992;8.820;2024-01-30T04:29:30;9.88;;;5.80;;
48042;SDS011;33988;47.992;8.820;2024-01-30T04:31:58;7.53;;;4.97;;
48042;SDS011;33988;47.992;8.820;2024-01-30T04:34:25;7.47;;;5.28;;
48042;SDS011;33988;47.992;8.820;2024-01-30T04:36:52;10.10;;;5.63;;
48042;SDS011;33988;47.992;8.820;2024-01-30T04:39:27;10.30;;;5.80;;
48042;SDS011;33988;47.992;8.820;2024-01-30T04:41:54;8.05;;;5.28;;
48042;SDS011;33988;47.992;8.820;2024-01-30T04:44:23;8.55;;;5.53;;
48042;SDS011;33988;47.992;8.820;2024-01-30T04:46:53;10.02;;;5.10;;
48042;SDS011;33988;47.992;8.820;2024-01-30T04:49:20;7.45;;;5.18;;
48042;SDS011;33988;47.992;8.820;2024-01-30T04:51:47;9.05;;;5.30;;
48042;SDS011;33988;47.992;8.820;2024-01-30T04:54:14;8.00;;;5.35;;
48042;SDS011;33988;47.992;8.820;2024-01-30T04:56:41;10.00;;;5.55;;
48042;SDS011;33988;47.992;8.820;2024-01-30T04:59:08;13.18;;;5.55;;
48042;SDS011;33988;47.992;8.820;2024-01-30T05:01:37;10.88;;;5.72;;
48042;SDS011;33988;47.992;8.820;2024-01-30T05:04:06;8.55;;;5.57;;
48042;SDS011;33988;47.992;8.820;2024-01-30T05:06:35;7.55;;;5.00;;
48042;SDS011;33988;47.992;8.820;2024-01-30T05:09:02;8.70;;;5.60;;
48042;SDS011;33988;47.992;8.820;2024-01-30T05:11:36;8.38;;;5.53;;
48042;SDS011;33988;47.992;8.820;2024-01-30T05:14:07;7.00;;;4.72;;
48042;SDS011;33988;47.992;8.820;2024-01-30T05:16:37;9.18;;;4.88;;
48042;SDS011;33988;47.992;8.820;2024-01-30T05:19:04;8.70;;;5.45;;
48042;SDS011;33988;47.992;8.820;2024-01-30T05:21:31;8.60;;;4.97;;
48042;SDS011;33988;47.992;8.820;2024-01-30T05:23:58;7.57;;;5.00;;
48042;SDS011;33988;47.992;8.820;2024-01-30T05:26:27;8.13;;;5.35;;
48042;SDS011;33988;47.992;8.820;2024-01-30T05:28:54;9.40;;;5.47;;
48042;SDS011;33988;47.992;8.820;2024-01-30T05:31:22;10.18;;;5.43;;
48042;SDS011;33988;47.992;8.820;2024-01-30T05:33:52;6.82;;;5.28;;
48042;SDS011;33988;47.992;8.820;2024-01-30T05:36:22;7.55;;;4.97;;
48042;SDS011;33988;47.992;8.820;2024-01-30T05:38:51;7.72;;;5.05;;
48042;SDS011;33988;47.992;8.820;2024-01-30T05:41:20;7.40;;;5.53;;
48042;SDS011;33988;47.992;8.820;2024-01-30T05:43:47;9.45;;;5.80;;
48042;SDS011;33988;47.992;8.820;2024-01-30T05:46:14;8.50;;;5.63;;
48042;SDS011;33988;47.992;8.820;2024-01-30T05:48:41;9.27;;;5.82;;
48042;SDS011;33988;47.992;8.820;2024-01-30T05:51:08;8.93;;;5.40;;
48042;SDS011;33988;47.992;8.820;2024-01-30T05:53:35;10.27;;;6.05;;
48042;SDS011;33988;47.992;8.820;2024-01-30T05:56:02;11.80;;;5.90;;
48042;SDS011;33988;47.992;8.820;2024-01-30T05:58:30;12.68;;;6.15;;
48042;SDS011;33988;47.992;8.820;2024-01-30T06:01:06;9.25;;;5.80;;
48042;SDS011;33988;47.992;8.820;2024-01-30T06:03:36;8.38;;;5.57;;
48042;SDS011;33988;47.992;8.820;2024-01-30T06:06:03;11.35;;;5.93;;
48042;SDS011;33988;47.992;8.820;2024-01-30T06:11:04;8.30;;;4.22;;
48042;SDS011;33988;47.992;8.820;2024-01-30T06:13:31;7.57;;;5.25;;
48042;SDS011;33988;47.992;8.820;2024-01-30T06:15:58;8.05;;;5.30;;
48042;SDS011;33988;47.992;8.820;2024-01-30T06:18:25;8.35;;;5.18;;
48042;SDS011;33988;47.992;8.820;2024-01-30T06:20:57;8.48;;;5.15;;
48042;SDS011;33988;47.992;8.820;2024-01-30T06:23:24;7.18;;;4.95;;
48042;SDS011;33988;47.992;8.820;2024-01-30T06:25:51;6.88;;;4.90;;
48042;SDS011;33988;47.992;8.820;2024-01-30T06:28:22;7.68;;;4.70;;
48042;SDS011;33988;47.992;8.820;2024-01-30T06:30:49;7.65;;;5.15;;
48042;SDS011;33988;47.992;8.820;2024-01-30T06:33:16;7.60;;;4.43;;
48042;SDS011;33988;47.992;8.820;2024-01-30T06:35:43;9.52;;;5.43;;
48042;SDS011;33988;47.992;8.820;2024-01-30T06:38:11;10.95;;;5.93;;
48042;SDS011;33988;47.992;8.820;2024-01-30T06:40:39;9.98;;;6.30;;
48042;SDS011;33988;47.992;8.820;2024-01-30T06:43:06;11.48;;;6.63;;
48042;SDS011;33988;47.992;8.820;2024-01-30T06:45:34;10.15;;;5.88;;
48042;SDS011;33988;47.992;8.820;2024-01-30T06:48:01;11.75;;;6.47;;
48042;SDS011;33988;47.992;8.820;2024-01-30T06:50:28;11.90;;;6.35;;
48042;SDS011;33988;47.992;8.820;2024-01-30T06:52:55;9.50;;;6.15;;
48042;SDS011;33988;47.992;8.820;2024-01-30T06:55:22;10.88;;;6.35;;
48042;SDS011;33988;47.992;8.820;2024-01-30T06:57:56;9.70;;;5.85;;
48042;SDS011;33988;47.992;8.820;2024-01-30T07:00:46;13.25;;;6.13;;
48042;SDS011;33988;47.992;8.820;2024-01-30T07:03:13;9.73;;;6.38;;
48042;SDS011;33988;47.992;8.820;2024-01-30T07:05:43;8.80;;;5.53;;
48042;SDS011;33988;47.992;8.820;2024-01-30T07:08:10;11.80;;;6.35;;
48042;SDS011;33988;47.992;8.820;2024-01-30T07:10:43;8.98;;;6.00;;
48042;SDS011;33988;47.992;8.820;2024-01-30T07:13:13;9.43;;;6.10;;
48042;SDS011;33988;47.992;8.820;2024-01-30T07:15:42;10.48;;;6.65;;
48042;SDS011;33988;47.992;8.820;2024-01-30T07:18:10;10.38;;;6.38;;
48042;SDS011;33988;47.992;8.820;2024-01-30T07:20:37;11.13;;;6.22;;
48042;SDS011;33988;47.992;8.820;2024-01-30T07:23:07;15.87;;;10.40;;
48042;SDS011;33988;47.992;8.820;2024-01-30T07:25:37;24.13;;;13.82;;
48042;SDS011;33988;47.992;8.820;2024-01-30T07:28:05;18.77;;;12.30;;
48042;SDS011;33988;47.992;8.820;2024-01-30T07:30:36;20.88;;;11.93;;
48042;SDS011;33988;47.992;8.820;2024-01-30T07:33:05;19.63;;;10.60;;
48042;SDS011;33988;47.992;8.820;2024-01-30T07:35:36;19.00;;;10.73;;
48042;SDS011;33988;47.992;8.820;2024-01-30T07:38:03;18.58;;;10.32;;
48042;SDS011;33988;47.992;8.820;2024-01-30T07:40:30;16.02;;;9.63;;
48042;SDS011;33988;47.992;8.820;2024-01-30T07:42:59;18.08;;;10.52;;
48042;SDS011;33988;47.992;8.820;2024-01-30T07:45:27;18.23;;;11.07;;
48042;SDS011;33988;47.992;8.820;2024-01-30T07:47:59;16.80;;;10.55;;
48042;SDS011;33988;47.992;8.820;2024-01-30T07:50:27;16.55;;;10.75;;
48042;SDS011;33988;47.992;8.820;2024-01-30T07:52:57;14.45;;;9.95;;
48042;SDS011;33988;47.992;8.820;2024-01-30T07:57:57;9.25;;;6.47;;
48042;SDS011;33988;47.992;8.820;2024-01-30T08:00:27;11.80;;;7.43;;
48042;SDS011;33988;47.992;8.820;2024-01-30T08:02:55;10.95;;;7.57;;
48042;SDS011;33988;47.992;8.820;2024-01-30T08:05:23;9.95;;;7.05;;
48042;SDS011;33988;47.992;8.820;2024-01-30T08:07:53;11.65;;;8.18;;
48042;SDS011;33988;47.992;8.820;2024-01-30T08:10:20;20.05;;;12.95;;
48042;SDS011;33988;47.992;8.820;2024-01-30T08:12:47;24.65;;;15.13;;
48042;SDS011;33988;47.992;8.820;2024-01-30T08:15:14;26.73;;;15.98;;
48042;SDS011;33988;47.992;8.820;2024-01-30T08:17:41;19.88;;;11.98;;
48042;SDS011;33988;47.992;8.820;2024-01-30T08:20:12;15.07;;;10.18;;
48042;SDS011;33988;47.992;8.820;2024-01-30T08:22:42;17.58;;;10.18;;
48042;SDS011;33988;47.992;8.820;2024-01-30T08:25:12;13.95;;;9.05;;
48042;SDS011;33988;47.992;8.820;2024-01-30T08:27:43;16.83;;;9.52;;
48042;SDS011;33988;47.992;8.820;2024-01-30T08:30:13;14.73;;;9.77;;
48042;SDS011;33988;47.992;8.820;2024-01-30T08:32:43;16.70;;;10.02;;
48042;SDS011;33988;47.992;8.820;2024-01-30T08:35:10;16.77;;;10.68;;
48042;SDS011;33988;47.992;8.820;2024-01-30T08:37:41;18.65;;;11.02;;
48042;SDS011;33988;47.992;8.820;2024-01-30T08:40:09;15.77;;;10.73;;
48042;SDS011;33988;47.992;8.820;2024-01-30T08:42:41;16.63;;;10.45;;
48042;SDS011;33988;47.992;8.820;2024-01-30T08:45:10;17.73;;;11.20;;
48042;SDS011;33988;47.992;8.820;2024-01-30T08:47:37;16.88;;;10.63;;
48042;SDS011;33988;47.992;8.820;2024-01-30T08:50:07;15.60;;;10.52;;
48042;SDS011;33988;47.992;8.820;2024-01-30T08:52:34;15.82;;;10.05;;
48042;SDS011;33988;47.992;8.820;2024-01-30T08:55:03;16.60;;;10.40;;
48042;SDS011;33988;47.992;8.820;2024-01-30T08:57:38;15.82;;;9.98;;
48042;SDS011;33988;47.992;8.820;2024-01-30T09:00:05;14.90;;;10.98;;
48042;SDS011;33988;47.992;8.820;2024-01-30T09:02:35;16.70;;;11.05;;
48042;SDS011;33988;47.992;8.820;2024-01-30T09:05:02;18.15;;;11.52;;
48042;SDS011;33988;47.992;8.820;2024-01-30T09:07:32;19.08;;;12.23;;
48042;SDS011;33988;47.992;8.820;2024-01-30T09:09:59;18.05;;;11.43;;
48042;SDS011;33988;47.992;8.820;2024-01-30T09:12:26;16.63;;;11.43;;
48042;SDS011;33988;47.992;8.820;2024-01-30T09:14:56;19.65;;;11.18;;
48042;SDS011;33988;47.992;8.820;2024-01-30T09:17:26;22.73;;;12.35;;
48042;SDS011;33988;47.992;8.820;2024-01-30T09:19:53;19.30;;;12.90;;
48042;SDS011;33988;47.992;8.820;2024-01-30T09:22:22;18.67;;;12.20;;
48042;SDS011;33988;47.992;8.820;2024-01-30T09:24:54;15.70;;;10.70;;
48042;SDS011;33988;47.992;8.820;2024-01-30T09:27:26;15.95;;;10.70;;
48042;SDS011;33988;47.992;8.820;2024-01-30T09:29:53;15.20;;;10.48;;
48042;SDS011;33988;47.992;8.820;2024-01-30T09:32:20;14.52;;;10.10;;
48042;SDS011;33988;47.992;8.820;2024-01-30T09:34:49;14.80;;;9.52;;
48042;SDS011;33988;47.992;8.820;2024-01-30T09:37:17;13.70;;;9.18;;
48042;SDS011;33988;47.992;8.820;2024-01-30T09:39:44;14.80;;;9.43;;
48042;SDS011;33988;47.992;8.820;2024-01-30T09:42:27;13.45;;;9.43;;
48042;SDS011;33988;47.992;8.820;2024-01-30T09:45:02;14.13;;;8.65;;
48042;SDS011;33988;47.992;8.820;2024-01-30T09:47:32;14.13;;;8.63;;
48042;SDS011;33988;47.992;8.820;2024-01-30T09:50:10;14.00;;;8.32;;
48042;SDS011;33988;47.992;8.820;2024-01-30T09:52:39;13.52;;;9.10;;
48042;SDS011;33988;47.992;8.820;2024-01-30T09:55:07;15.98;;;9.48;;
48042;SDS011;33988;47.992;8.820;2024-01-30T09:57:37;15.32;;;9.23;;
48042;SDS011;33988;47.992;8.820;2024-01-30T10:00:07;16.17;;;10.05;;
48042;SDS011;33988;47.992;8.820;2024-01-30T10:02:40;15.00;;;9.68;;
48042;SDS011;33988;47.992;8.820;2024-01-30T10:05:07;15.10;;;10.52;;
48042;SDS011;33988;47.992;8.820;2024-01-30T10:07:35;15.15;;;9.45;;
48042;SDS011;33988;47.992;8.820;2024-01-30T10:10:02;15.43;;;10.18;;
48042;SDS011;33988;47.992;8.820;2024-01-30T10:12:33;14.90;;;9.68;;
48042;SDS011;33988;47.992;8.820;2024-01-30T10:15:00;17.90;;;10.75;;
48042;SDS011;33988;47.992;8.820;2024-01-30T10:17:29;24.55;;;11.13;;
48042;SDS011;33988;47.992;8.820;2024-01-30T10:19:59;16.92;;;10.20;;
48042;SDS011;33988;47.992;8.820;2024-01-30T10:22:35;17.17;;;10.40;;
48042;SDS011;33988;47.992;8.820;2024-01-30T10:25:03;18.17;;;11.63;;
48042;SDS011;33988;47.992;8.820;2024-01-30T10:27:34;17.83;;;11.20;;
48042;SDS011;33988;47.992;8.820;2024-01-30T10:30:01;18.60;;;10.68;;
48042;SDS011;33988;47.992;8.820;2024-01-30T10:32:30;18.55;;;10.32;;
48042;SDS011;33988;47.992;8.820;2024-01-30T10:35:00;16.65;;;10.38;;
48042;SDS011;33988;47.992;8.820;2024-01-30T10:37:29;19.83;;;11.23;;
48042;SDS011;33988;47.992;8.820;2024-01-30T10:40:02;16.05;;;10.30;;
48042;SDS011;33988;47.992;8.820;2024-01-30T10:42:36;16.58;;;10.48;;
48042;SDS011;33988;47.992;8.820;2024-01-30T10:47:48;16.02;;;9.60;;
48042;SDS011;33988;47.992;8.820;2024-01-30T10:50:16;14.93;;;9.45;;
48042;SDS011;33988;47.992;8.820;2024-01-30T10:52:45;16.00;;;9.45;;
48042;SDS011;33988;47.992;8.820;2024-01-30T10:55:13;13.68;;;9.98;;
48042;SDS011;33988;47.992;8.820;2024-01-30T10:57:45;13.75;;;9.95;;
48042;SDS011;33988;47.992;8.820;2024-01-30T11:00:24;14.40;;;9.30;;
48042;SDS011;33988;47.992;8.820;2024-01-30T11:02:52;16.48;;;9.60;;
48042;SDS011;33988;47.992;8.820;2024-01-30T11:05:27;15.52;;;10.10;;
48042;SDS011;33988;47.992;8.820;2024-01-30T11:07:59;22.02;;;9.35;;
48042;SDS011;33988;47.992;8.820;2024-01-30T11:10:46;15.60;;;9.60;;
48042;SDS011;33988;47.992;8.820;2024-01-30T11:13:15;16.75;;;10.55;;
48042;SDS011;33988;47.992;8.820;2024-01-30T11:15:45;17.95;;;11.77;;
48042;SDS011;33988;47.992;8.820;2024-01-30T11:18:28;18.77;;;12.10;;
48042;SDS011;33988;47.992;8.820;2024-01-30T11:20:57;16.92;;;10.82;;
48042;SDS011;33988;47.992;8.820;2024-01-30T11:25:56;17.27;;;10.90;;
48042;SDS011;33988;47.992;8.820;2024-01-30T11:28:35;18.75;;;11.07;;
48042;SDS011;33988;47.992;8.820;2024-01-30T11:31:05;19.25;;;12.45;;
48042;SDS011;33988;47.992;8.820;2024-01-30T11:33:38;17.30;;;11.65;;
48042;SDS011;33988;47.992;8.820;2024-01-30T11:38:40;15.95;;;10.10;;
48042;SDS011;33988;47.992;8.820;2024-01-30T11:41:11;15.70;;;10.50;;
48042;SDS011;33988;47.992;8.820;2024-01-30T11:43:40;14.82;;;10.68;;
48042;SDS011;33988;47.992;8.820;2024-01-30T11:46:07;17.27;;;10.40;;
48042;SDS011;33988;47.992;8.820;2024-01-30T11:48:36;19.30;;;11.50;;
48042;SDS011;33988;47.992;8.820;2024-01-30T11:51:06;17.35;;;10.50;;
48042;SDS011;33988;47.992;8.820;2024-01-30T11:53:33;17.67;;;10.48;;
48042;SDS011;33988;47.992;8.820;2024-01-30T11:56:02;16.42;;;10.55;;
48042;SDS011;33988;47.992;8.820;2024-01-30T11:58:33;17.75;;;10.95;;
48042;SDS011;33988;47.992;8.820;2024-01-30T12:01:00;16.25;;;10.68;;
48042;SDS011;33988;47.992;8.820;2024-01-30T12:03:27;19.60;;;11.25;;
48042;SDS011;33988;47.992;8.820;2024-01-30T12:05:55;15.23;;;9.75;;
48042;SDS011;33988;47.992;8.820;2024-01-30T12:08:26;11.20;;;7.85;;
48042;SDS011;33988;47.992;8.820;2024-01-30T12:10:59;10.80;;;7.47;;
48042;SDS011;33988;47.992;8.820;2024-01-30T12:13:31;10.85;;;7.10;;
48042;SDS011;33988;47.992;8.820;2024-01-30T12:15:59;10.27;;;7.32;;
48042;SDS011;33988;47.992;8.820;2024-01-30T12:18:29;9.50;;;6.63;;
48042;SDS011;33988;47.992;8.820;2024-01-30T12:20:57;9.98;;;6.70;;
48042;SDS011;33988;47.992;8.820;2024-01-30T12:25:57;13.90;;;7.63;;
48042;SDS011;33988;47.992;8.820;2024-01-30T12:28:25;11.00;;;7.40;;
48042;SDS011;33988;47.992;8.820;2024-01-30T12:30:55;13.25;;;7.72;;
48042;SDS011;33988;47.992;8.820;2024-01-30T12:33:27;14.23;;;7.40;;
48042;SDS011;33988;47.992;8.820;2024-01-30T12:35:56;12.18;;;7.55;;
48042;SDS011;33988;47.992;8.820;2024-01-30T12:38:31;11.32;;;7.18;;
48042;SDS011;33988;47.992;8.820;2024-01-30T12:41:01;9.45;;;6.95;;
48042;SDS011;33988;47.992;8.820;2024-01-30T12:43:28;10.35;;;6.80;;
48042;SDS011;33988;47.992;8.820;2024-01-30T12:46:07;11.30;;;5.97;;
48042;SDS011;33988;47.992;8.820;2024-01-30T12:48:36;10.70;;;6.38;;
48042;SDS011;33988;47.992;8.820;2024-01-30T12:51:04;10.85;;;6.40;;
48042;SDS011;33988;47.992;8.820;2024-01-30T12:53:33;10.57;;;6.32;;
48042;SDS011;33988;47.992;8.820;2024-01-30T12:56:05;11.52;;;6.47;;
48042;SDS011;33988;47.992;8.820;2024-01-30T12:58:34;9.00;;;6.07;;
48042;SDS011;33988;47.992;8.820;2024-01-30T13:01:01;9.15;;;5.93;;
48042;SDS011;33988;47.992;8.820;2024-01-30T13:03:28;10.57;;;5.85;;
48042;SDS011;33988;47.992;8.820;2024-01-30T13:05:56;8.38;;;5.07;;
48042;SDS011;33988;47.992;8.820;2024-01-30T13:08:23;6.95;;;4.80;;
48042;SDS011;33988;47.992;8.820;2024-01-30T13:10:50;6.07;;;4.95;;
48042;SDS011;33988;47.992;8.820;2024-01-30T13:13:17;6.53;;;4.25;;
48042;SDS011;33988;47.992;8.820;2024-01-30T13:15:47;8.07;;;4.30;;
48042;SDS011;33988;47.992;8.820;2024-01-30T13:18:19;6.60;;;4.43;;
48042;SDS011;33988;47.992;8.820;2024-01-30T13:20:46;6.07;;;4.18;;
48042;SDS011;33988;47.992;8.820;2024-01-30T13:23:13;6.25;;;4.68;;
48042;SDS011;33988;47.992;8.820;2024-01-30T13:25:42;5.97;;;4.38;;
48042;SDS011;33988;47.992;8.820;2024-01-30T13:28:09;4.82;;;3.75;;
48042;SDS011;33988;47.992;8.820;2024-01-30T13:30:41;5.40;;;3.70;;
48042;SDS011;33988;47.992;8.820;2024-01-30T13:33:10;6.00;;;3.33;;
48042;SDS011;33988;47.992;8.820;2024-01-30T13:35:39;4.82;;;3.20;;
48042;SDS011;33988;47.992;8.820;2024-01-30T13:38:06;5.65;;;3.08;;
48042;SDS011;33988;47.992;8.820;2024-01-30T13:40:36;5.53;;;3.15;;
48042;SDS011;33988;47.992;8.820;2024-01-30T13:43:05;5.22;;;2.67;;
48042;SDS011;33988;47.992;8.820;2024-01-30T13:45:33;4.30;;;2.88;;
48042;SDS011;33988;47.992;8.820;2024-01-30T13:47:59;5.05;;;2.80;;
48042;SDS011;33988;47.992;8.820;2024-01-30T13:50:27;3.92;;;2.92;;
48042;SDS011;33988;47.992;8.820;2024-01-30T13:52:54;3.15;;;2.45;;
48042;SDS011;33988;47.992;8.820;2024-01-30T13:55:22;3.53;;;2.55;;
48042;SDS011;33988;47.992;8.820;2024-01-30T13:57:49;5.20;;;2.90;;
48042;SDS011;33988;47.992;8.820;2024-01-30T14:00:17;5.65;;;3.00;;
48042;SDS011;33988;47.992;8.820;2024-01-30T14:02:45;4.25;;;2.85;;
48042;SDS011;33988;47.992;8.820;2024-01-30T14:05:14;4.10;;;2.90;;
48042;SDS011;33988;47.992;8.820;2024-01-30T14:07:42;3.95;;;2.88;;
48042;SDS011;33988;47.992;8.820;2024-01-30T14:10:15;6.20;;;3.03;;
48042;SDS011;33988;47.992;8.820;2024-01-30T14:12:46;3.55;;;2.53;;
48042;SDS011;33988;47.992;8.820;2024-01-30T14:15:16;3.97;;;3.00;;
48042;SDS011;33988;47.992;8.820;2024-01-30T14:17:54;3.20;;;2.65;;
48042;SDS011;33988;47.992;8.820;2024-01-30T14:20:22;4.38;;;2.75;;
48042;SDS011;33988;47.992;8.820;2024-01-30T14:22:49;4.93;;;3.10;;
48042;SDS011;33988;47.992;8.820;2024-01-30T14:25:16;5.65;;;2.85;;
48042;SDS011;33988;47.992;8.820;2024-01-30T14:27:43;3.78;;;2.90;;
48042;SDS011;33988;47.992;8.820;2024-01-30T14:30:10;4.32;;;3.03;;
48042;SDS011;33988;47.992;8.820;2024-01-30T14:32:38;4.68;;;2.88;;
48042;SDS011;33988;47.992;8.820;2024-01-30T14:35:11;5.35;;;2.80;;
48042;SDS011;33988;47.992;8.820;2024-01-30T14:37:38;4.25;;;3.10;;
48042;SDS011;33988;47.992;8.820;2024-01-30T14:40:05;10.32;;;3.10;;
48042;SDS011;33988;47.992;8.820;2024-01-30T14:42:36;3.45;;;2.83;;
48042;SDS011;33988;47.992;8.820;2024-01-30T14:45:05;5.60;;;2.58;;
48042;SDS011;33988;47.992;8.820;2024-01-30T14:47:33;4.93;;;3.10;;
48042;SDS011;33988;47.992;8.820;2024-01-30T14:50:02;4.95;;;3.00;;
48042;SDS011;33988;47.992;8.820;2024-01-30T14:52:34;5.20;;;3.00;;
48042;SDS011;33988;47.992;8.820;2024-01-30T14:55:01;4.40;;;3.00;;
48042;SDS011;33988;47.992;8.820;2024-01-30T14:57:28;6.57;;;2.97;;
48042;SDS011;33988;47.992;8.820;2024-01-30T14:59:56;6.53;;;3.70;;
48042;SDS011;33988;47.992;8.820;2024-01-30T15:02:23;4.57;;;3.47;;
48042;SDS011;33988;47.992;8.820;2024-01-30T15:04:50;7.93;;;4.60;;
48042;SDS011;33988;47.992;8.820;2024-01-30T15:07:19;7.05;;;4.63;;
48042;SDS011;33988;47.992;8.820;2024-01-30T15:09:58;7.90;;;4.72;;